createdAt,value
2022-08-05T00:00:38.495Z,54.2
2022-08-05T00:01:54.785Z,54.6
2022-08-05T00:03:10.095Z,54.3
2022-08-05T00:04:26.393Z,54.6
2022-08-05T00:05:42.675Z,54.7
2022-08-05T00:06:58.968Z,54.8
2022-08-05T00:08:15.256Z,55.5
2022-08-05T00:09:31.559Z,56.3
2022-08-05T00:10:47.848Z,55.9
2022-08-05T00:12:04.133Z,55.9
2022-08-05T00:13:20.000Z,56.2
2022-08-05T00:14:36.724Z,55.9
2022-08-05T00:15:53.017Z,56
2022-08-05T00:17:09.314Z,56.8
2022-08-05T00:18:25.611Z,58
2022-08-05T00:19:40.925Z,58.1
2022-08-05T00:20:57.210Z,58.1
2022-08-05T00:22:13.498Z,58
2022-08-05T00:23:29.785Z,57.2
2022-08-05T00:24:46.085Z,58.6
2022-08-05T00:26:02.375Z,59
2022-08-05T00:27:18.681Z,57.9
2022-08-05T00:28:34.955Z,57.4
2022-08-05T00:29:51.264Z,57.5
2022-08-05T00:31:07.547Z,57.5
2022-08-05T00:32:23.852Z,58
2022-08-05T00:33:40.139Z,57.8
2022-08-05T00:34:56.430Z,57.7
2022-08-05T00:36:11.745Z,58.8
2022-08-05T00:37:28.033Z,57.9
2022-08-05T00:38:44.327Z,57.7
2022-08-05T00:40:00.612Z,58.5
2022-08-05T00:41:16.914Z,59
2022-08-05T00:42:33.199Z,59.4
2022-08-05T00:43:49.490Z,59.1
2022-08-05T00:45:05.795Z,59
2022-08-05T00:46:22.069Z,59.3
2022-08-05T00:47:38.376Z,61.4
2022-08-05T00:48:54.671Z,61.6
2022-08-05T00:50:10.953Z,60.7
2022-08-05T00:51:27.249Z,60
2022-08-05T00:52:42.560Z,60.1
2022-08-05T00:53:58.856Z,60.6
2022-08-05T00:55:15.140Z,60.4
2022-08-05T00:56:31.425Z,60.9
2022-08-05T00:57:47.725Z,61.7
2022-08-05T00:59:04.021Z,61.4
2022-08-05T01:00:19.344Z,61.6
2022-08-05T01:01:35.622Z,61.3
2022-08-05T01:02:51.920Z,61.4
2022-08-05T01:04:08.211Z,61.6
2022-08-05T01:05:24.506Z,61.8
2022-08-05T01:06:40.806Z,62.1
2022-08-05T01:07:57.091Z,62.3
2022-08-05T01:09:13.373Z,62.5
2022-08-05T01:10:29.670Z,63.3
2022-08-05T01:11:45.978Z,63.5
2022-08-05T01:13:02.256Z,63.8
2022-08-05T01:14:18.549Z,63.6
2022-08-05T01:15:34.839Z,64.6
2022-08-05T01:16:50.164Z,63.9
2022-08-05T01:18:06.447Z,63.9
2022-08-05T01:19:22.747Z,63.6
2022-08-05T01:20:39.034Z,63.8
2022-08-05T01:21:55.332Z,63.7
2022-08-05T01:23:11.629Z,64
2022-08-05T01:24:27.909Z,63.8
2022-08-05T01:25:44.203Z,63.7
2022-08-05T01:27:00.489Z,63.8
2022-08-05T01:28:16.793Z,64.9
2022-08-05T01:29:33.083Z,64.4
2022-08-05T01:30:49.382Z,64.5
2022-08-05T01:32:05.663Z,64.9
2022-08-05T01:33:20.969Z,65.2
2022-08-05T01:34:37.262Z,65.5
2022-08-05T01:35:53.570Z,65.8
2022-08-05T01:37:09.860Z,65.7
2022-08-05T01:38:26.156Z,65.5
2022-08-05T01:39:42.447Z,65.7
2022-08-05T01:40:58.732Z,65.6
2022-08-05T01:42:15.022Z,65.8
2022-08-05T01:43:31.312Z,65.8
2022-08-05T01:44:47.617Z,65.9
2022-08-05T01:46:03.909Z,65.9
2022-08-05T01:47:20.192Z,66
2022-08-05T01:48:36.482Z,66
2022-08-05T01:49:51.800Z,66.4
2022-08-05T01:51:08.094Z,66.6
2022-08-05T01:52:24.371Z,67.2
2022-08-05T01:53:40.681Z,67.3
2022-08-05T01:54:56.973Z,66.9
2022-08-05T01:56:13.264Z,67.2
2022-08-05T01:57:29.544Z,67.2
2022-08-05T01:58:45.845Z,67.4
2022-08-05T02:00:02.133Z,67.5
2022-08-05T02:01:18.430Z,67.3
2022-08-05T02:02:34.721Z,67.5
2022-08-05T02:03:51.018Z,67.6
2022-08-05T02:05:07.299Z,67.6
2022-08-05T02:06:22.606Z,67.7
2022-08-05T02:07:38.915Z,67.6
2022-08-05T02:08:55.201Z,67.8
2022-08-05T02:10:11.493Z,67.6
2022-08-05T02:11:27.774Z,67.8
2022-08-05T02:12:44.087Z,68.1
2022-08-05T02:14:00.377Z,68.4
2022-08-05T02:15:16.654Z,68.5
2022-08-05T02:16:32.949Z,69.9
2022-08-05T02:17:49.239Z,70
2022-08-05T02:19:05.551Z,69.7
2022-08-05T02:20:21.829Z,70.8
2022-08-05T02:21:38.135Z,70.2
2022-08-05T02:22:53.434Z,70.5
2022-08-05T02:24:09.718Z,71.3
2022-08-05T02:25:26.022Z,71.9
2022-08-05T02:26:42.303Z,71.2
2022-08-05T02:27:58.595Z,70.5
2022-08-05T02:29:14.904Z,70.9
2022-08-05T02:30:31.189Z,71
2022-08-05T02:31:47.480Z,70.8
2022-08-05T02:33:03.783Z,70.9
2022-08-05T02:34:20.056Z,71.2
2022-08-05T02:35:36.368Z,71.5
2022-08-05T02:36:52.651Z,72.2
2022-08-05T02:38:08.947Z,72.2
2022-08-05T02:39:24.248Z,72
2022-08-05T02:40:40.535Z,71.9
2022-08-05T02:41:56.844Z,71.3
2022-08-05T02:43:13.128Z,72
2022-08-05T02:44:29.428Z,71.8
2022-08-05T02:45:45.711Z,72.2
2022-08-05T02:47:02.002Z,72.7
2022-08-05T02:48:18.289Z,73.4
2022-08-05T02:49:34.587Z,72.9
2022-08-05T02:50:50.882Z,72.9
2022-08-05T02:52:07.169Z,73
2022-08-05T02:53:23.468Z,73
2022-08-05T02:54:39.764Z,73.3
2022-08-05T02:55:55.076Z,73.4
2022-08-05T02:57:11.362Z,73.4
2022-08-05T02:58:27.648Z,73.7
2022-08-05T02:59:43.959Z,73.6
2022-08-05T03:01:00.245Z,73.8
2022-08-05T03:02:16.523Z,74.4
2022-08-05T03:03:32.763Z,74.2
2022-08-05T03:04:49.072Z,74.3
2022-08-05T03:06:05.308Z,74.4
2022-08-05T03:07:21.551Z,74.2
2022-08-05T03:08:37.787Z,74
2022-08-05T03:09:54.073Z,74.3
2022-08-05T03:11:10.335Z,74.7
2022-08-05T03:12:25.585Z,75.2
2022-08-05T03:13:41.831Z,75.4
2022-08-05T03:14:58.081Z,75.5
2022-08-05T03:16:14.328Z,75.6
2022-08-05T03:17:30.566Z,75.8
2022-08-05T03:18:46.792Z,75.9
2022-08-05T03:20:03.036Z,76.3
2022-08-05T03:21:19.281Z,76.6
2022-08-05T03:22:35.522Z,76.8
2022-08-05T03:23:51.763Z,76.7
2022-08-05T03:25:08.001Z,77.1
2022-08-05T03:26:24.224Z,77.7
2022-08-05T03:27:40.464Z,77.8
2022-08-05T03:28:55.721Z,77.8
2022-08-05T03:30:11.960Z,77.6
2022-08-05T03:31:28.205Z,78.1
2022-08-05T03:32:44.446Z,78.1
2022-08-05T03:34:00.683Z,78.5
2022-08-05T03:35:16.914Z,78.4
2022-08-05T03:36:33.156Z,78.9
2022-08-05T03:37:49.388Z,78.7
2022-08-05T03:39:05.627Z,79
2022-08-05T03:40:21.878Z,79.3
2022-08-05T03:41:38.098Z,79.7
2022-08-05T03:42:54.354Z,79.8
2022-08-05T03:44:10.591Z,80
2022-08-05T03:45:25.842Z,79.7
2022-08-05T03:46:42.075Z,79.7
2022-08-05T03:47:58.324Z,80.2
2022-08-05T03:49:14.550Z,80.2
2022-08-05T03:50:30.802Z,80
2022-08-05T03:51:47.023Z,80
2022-08-05T03:53:03.265Z,80.7
2022-08-05T03:54:19.502Z,80.8
2022-08-05T03:55:35.740Z,80.8
2022-08-05T03:56:51.978Z,81.1
2022-08-05T03:58:08.222Z,81.2
2022-08-05T03:59:24.459Z,81.4
2022-08-05T04:00:40.695Z,81.4
2022-08-05T04:01:55.964Z,81.3
2022-08-05T04:03:12.188Z,81.6
2022-08-05T04:04:28.433Z,81.3
2022-08-05T04:05:44.678Z,81.2
2022-08-05T04:07:00.907Z,81.5
2022-08-05T04:08:17.143Z,81.1
2022-08-05T04:09:33.394Z,81.2
2022-08-05T04:10:49.626Z,81.5
2022-08-05T04:12:05.874Z,81.5
2022-08-05T04:13:22.104Z,81.6
2022-08-05T04:14:38.337Z,81.8
2022-08-05T04:15:54.579Z,81.3
2022-08-05T04:17:10.824Z,81.2
2022-08-05T04:18:26.063Z,81.4
2022-08-05T04:19:42.315Z,80.8
2022-08-05T04:20:58.544Z,81.4
2022-08-05T04:22:14.795Z,81.2
2022-08-05T04:23:31.027Z,81.3
2022-08-05T04:24:47.274Z,81.2
2022-08-05T04:26:03.507Z,81.1
2022-08-05T04:27:19.737Z,81.3
2022-08-05T04:28:35.975Z,81.5
2022-08-05T04:29:52.217Z,81.3
2022-08-05T04:31:08.461Z,81.2
2022-08-05T04:33:40.934Z,80.8
2022-08-05T04:34:56.184Z,80.5
2022-08-05T04:36:12.420Z,80.5
2022-08-05T04:37:28.657Z,80.7
2022-08-05T04:38:44.908Z,81.3
2022-08-05T04:40:01.136Z,80.9
2022-08-05T04:41:17.385Z,81
2022-08-05T04:42:33.626Z,81.4
2022-08-05T04:43:49.853Z,81.1
2022-08-05T04:45:06.090Z,81
2022-08-05T04:46:22.331Z,81.3
2022-08-05T04:47:38.576Z,81.7
2022-08-05T04:48:54.807Z,81.5
2022-08-05T04:50:11.058Z,81.8
2022-08-05T04:51:26.303Z,81.7
2022-08-05T04:52:42.538Z,82.2
2022-08-05T04:53:58.788Z,82.2
2022-08-05T04:55:15.027Z,81.7
2022-08-05T04:56:31.262Z,82
2022-08-05T04:57:47.493Z,82.1
2022-08-05T04:59:03.733Z,81.8
2022-08-05T05:00:19.965Z,81.8
2022-08-05T05:01:36.217Z,81.3
2022-08-05T05:02:52.449Z,81.4
2022-08-05T05:04:08.685Z,80.9
2022-08-05T05:05:24.936Z,80.7
2022-08-05T05:06:41.168Z,80.3
2022-08-05T05:07:56.424Z,80.4
2022-08-05T05:09:12.664Z,80.1
2022-08-05T05:10:28.904Z,79.9
2022-08-05T05:11:45.139Z,79.8
2022-08-05T05:13:01.363Z,79.6
2022-08-05T05:14:17.609Z,79.5
2022-08-05T05:15:32.881Z,79.3
2022-08-05T05:16:49.115Z,79.2
2022-08-05T05:18:05.344Z,78.8
2022-08-05T05:19:21.580Z,78.7
2022-08-05T05:20:37.835Z,78.4
2022-08-05T05:21:54.056Z,78.4
2022-08-05T05:23:10.294Z,78.2
2022-08-05T05:24:26.536Z,78.2
2022-08-05T05:25:42.777Z,77.9
2022-08-05T05:26:59.022Z,78.1
2022-08-05T05:28:15.251Z,77.8
2022-08-05T05:29:31.504Z,77.7
2022-08-05T05:30:47.724Z,77.7
2022-08-05T05:32:02.985Z,77.5
2022-08-05T05:33:19.225Z,77.2
2022-08-05T05:34:35.455Z,77.3
2022-08-05T05:35:51.700Z,77.1
2022-08-05T05:37:07.931Z,77.4
2022-08-05T05:38:24.179Z,77.3
2022-08-05T05:39:40.421Z,77.4
2022-08-05T05:40:56.646Z,77.5
2022-08-05T05:42:12.884Z,77.5
2022-08-05T05:43:29.138Z,77.6
2022-08-05T05:44:45.368Z,77.5
2022-08-05T05:46:01.604Z,77.5
2022-08-05T05:47:17.859Z,77.6
2022-08-05T05:48:33.096Z,77.6
2022-08-05T05:49:49.347Z,77.8
2022-08-05T05:51:05.589Z,77.7
2022-08-05T05:52:21.814Z,77.4
2022-08-05T05:53:38.063Z,77.6
2022-08-05T05:54:54.300Z,77.5
2022-08-05T05:56:10.531Z,77.6
2022-08-05T05:57:26.777Z,77.2
2022-08-05T05:58:43.018Z,77.1
2022-08-05T05:59:59.245Z,77.2
2022-08-05T06:01:15.481Z,77.3
2022-08-05T06:02:31.716Z,77.5
2022-08-05T06:03:47.960Z,77.6
2022-08-05T06:05:03.225Z,77.5
2022-08-05T06:06:19.454Z,77.6
2022-08-05T06:07:35.702Z,77.7
2022-08-05T06:08:51.938Z,77.9
2022-08-05T06:10:08.180Z,77.5
2022-08-05T06:11:24.417Z,77.3
2022-08-05T06:12:40.655Z,76.9
2022-08-05T06:13:56.887Z,77.2
2022-08-05T06:15:13.116Z,77.1
2022-08-05T06:16:29.356Z,76.7
2022-08-05T06:17:45.595Z,76.7
2022-08-05T06:19:01.844Z,76.2
2022-08-05T06:20:18.072Z,76.2
2022-08-05T06:21:33.325Z,76.2
2022-08-05T06:22:49.584Z,75.6
2022-08-05T06:24:05.807Z,75.4
2022-08-05T06:25:22.061Z,75.1
2022-08-05T06:26:38.298Z,74.7
2022-08-05T06:27:54.521Z,74.6
2022-08-05T06:29:10.768Z,73.2
2022-08-05T06:30:26.996Z,73.2
2022-08-05T06:31:43.239Z,73.9
2022-08-05T06:32:59.480Z,72.4
2022-08-05T06:34:15.717Z,73.6
2022-08-05T06:35:31.959Z,72.7
2022-08-05T06:36:48.198Z,71.8
2022-08-05T06:38:03.450Z,71.6
2022-08-05T06:39:19.699Z,70.8
2022-08-05T06:40:35.931Z,70.3
2022-08-05T06:41:52.176Z,70.5
2022-08-05T06:43:08.398Z,70.1
2022-08-05T06:44:24.643Z,69.5
2022-08-05T06:45:40.891Z,70.2
2022-08-05T06:46:57.125Z,68.8
2022-08-05T06:48:13.365Z,68.9
2022-08-05T06:49:29.610Z,69.6
2022-08-05T06:50:45.829Z,69.2
2022-08-05T06:52:02.088Z,68.7
2022-08-05T06:53:18.309Z,68.9
2022-08-05T06:54:33.563Z,69
2022-08-05T06:55:49.806Z,69.2
2022-08-05T06:57:06.055Z,69.2
2022-08-05T06:58:22.290Z,69.3
2022-08-05T06:59:38.523Z,69.7
2022-08-05T07:00:54.754Z,70
2022-08-05T07:02:10.993Z,70.3
2022-08-05T07:03:27.250Z,70.2
2022-08-05T07:04:43.486Z,70
2022-08-05T07:05:59.724Z,70
2022-08-05T07:07:15.964Z,69.9
2022-08-05T07:08:32.191Z,70.1
2022-08-05T07:09:48.444Z,70.8
2022-08-05T07:11:03.694Z,71.4
2022-08-05T07:12:19.930Z,71.8
2022-08-05T07:13:36.157Z,71.9
2022-08-05T07:14:52.410Z,72.7
2022-08-05T07:16:08.648Z,72.4
2022-08-05T07:17:24.882Z,72.1
2022-08-05T07:18:41.113Z,71.6
2022-08-05T07:19:57.355Z,71.3
2022-08-05T07:21:13.598Z,71.2
2022-08-05T07:22:29.826Z,71.6
2022-08-05T07:23:46.085Z,70.9
2022-08-05T07:25:02.307Z,70.6
2022-08-05T07:26:18.563Z,71.5
2022-08-05T07:27:33.809Z,70.7
2022-08-05T07:28:50.037Z,70
2022-08-05T07:30:06.278Z,70.5
2022-08-05T07:31:22.512Z,70.9
2022-08-05T07:32:38.753Z,69.2
2022-08-05T07:33:55.004Z,69.7
2022-08-05T07:35:11.241Z,69.2
2022-08-05T07:36:27.486Z,69.5
2022-08-05T07:37:43.709Z,68.3
2022-08-05T07:38:59.962Z,68.1
2022-08-05T07:40:16.186Z,68.2
2022-08-05T07:41:32.433Z,68.4
2022-08-05T07:42:48.678Z,67.6
2022-08-05T07:44:03.923Z,67.5
2022-08-05T07:45:20.169Z,66.3
2022-08-05T07:46:36.404Z,65.4
2022-08-05T07:47:52.641Z,66.3
2022-08-05T07:49:08.875Z,65.8
2022-08-05T07:50:25.118Z,64.5
2022-08-05T07:51:41.347Z,63.3
2022-08-05T07:52:57.590Z,63.9
2022-08-05T07:54:13.841Z,64.3
2022-08-05T07:55:30.067Z,64.8
2022-08-05T07:56:46.316Z,65.3
2022-08-05T07:58:02.556Z,65.7
2022-08-05T07:59:18.785Z,65.3
2022-08-05T08:00:34.042Z,64.5
2022-08-05T08:01:50.290Z,64.8
2022-08-05T08:03:06.525Z,65.5
2022-08-05T08:04:22.755Z,65.2
2022-08-05T08:05:38.987Z,65.5
2022-08-05T08:06:55.240Z,65.4
2022-08-05T08:08:11.482Z,65.8
2022-08-05T08:09:27.720Z,65
2022-08-05T08:10:43.946Z,65.2
2022-08-05T08:12:00.184Z,64.3
2022-08-05T08:13:16.432Z,63.9
2022-08-05T08:14:32.671Z,63.4
2022-08-05T08:15:48.912Z,62.2
2022-08-05T08:17:04.170Z,62.4
2022-08-05T08:18:20.394Z,61.6
2022-08-05T08:19:36.643Z,60.9
2022-08-05T08:20:52.865Z,62.3
2022-08-05T08:22:09.116Z,60.7
2022-08-05T08:23:25.352Z,59.5
2022-08-05T08:24:41.594Z,59.5
2022-08-05T08:25:57.821Z,58.8
2022-08-05T08:27:14.061Z,57.1
2022-08-05T08:28:30.303Z,56.7
2022-08-05T08:29:46.552Z,58.1
2022-08-05T08:31:02.778Z,57.3
2022-08-05T08:32:19.028Z,56.6
2022-08-05T08:33:34.273Z,56.6
2022-08-05T08:34:50.505Z,55.7
2022-08-05T08:36:06.761Z,55.8
2022-08-05T08:37:22.989Z,56
2022-08-05T08:38:39.235Z,57.2
2022-08-05T08:39:55.479Z,57.7
2022-08-05T08:41:11.709Z,58.2
2022-08-05T08:42:27.954Z,59.1
2022-08-05T08:43:44.181Z,59.9
2022-08-05T08:45:00.430Z,60.8
2022-08-05T08:46:16.655Z,61.6
2022-08-05T08:47:32.905Z,61.1
2022-08-05T08:48:49.132Z,61.7
2022-08-05T08:50:04.391Z,62.3
2022-08-05T08:51:20.629Z,63.4
2022-08-05T08:52:36.864Z,63.6
2022-08-05T08:53:53.117Z,64.4
2022-08-05T08:55:09.359Z,64.8
2022-08-05T08:56:25.596Z,64.6
2022-08-05T08:57:41.832Z,64
2022-08-05T08:58:58.063Z,63.6
2022-08-05T09:00:14.306Z,64.1
2022-08-05T09:01:30.543Z,63.4
2022-08-05T09:02:46.787Z,63.1
2022-08-05T09:04:03.023Z,59.1
2022-08-05T09:05:19.251Z,56.3
2022-08-05T09:06:34.518Z,57
2022-08-05T09:07:50.742Z,54
2022-08-05T09:09:06.988Z,52
2022-08-05T09:10:23.231Z,50.6
2022-08-05T09:11:39.461Z,49.3
2022-08-05T09:12:55.717Z,48.7
2022-08-05T09:14:11.945Z,46.8
2022-08-05T09:15:28.182Z,46
2022-08-05T09:16:44.421Z,46.5
2022-08-05T09:18:00.656Z,46.9
2022-08-05T09:19:16.906Z,45.4
2022-08-05T09:20:33.128Z,45.8
2022-08-05T09:21:49.380Z,44.5
2022-08-05T09:23:04.637Z,44.8
2022-08-05T09:24:20.873Z,45
2022-08-05T09:25:37.106Z,45.8
2022-08-05T09:26:53.348Z,43.6
2022-08-05T09:28:09.588Z,43.4
2022-08-05T09:29:25.830Z,44
2022-08-05T09:30:41.089Z,45.4
2022-08-05T09:31:57.320Z,46.1
2022-08-05T09:33:13.569Z,46.1
2022-08-05T09:34:29.802Z,44.6
2022-08-05T09:35:46.047Z,44.3
2022-08-05T09:37:02.290Z,44
2022-08-05T09:38:18.529Z,43.3
2022-08-05T09:39:34.754Z,42
2022-08-05T09:40:50.998Z,42
2022-08-05T09:42:07.240Z,41.1
2022-08-05T09:43:23.467Z,41.5
2022-08-05T09:44:39.704Z,41.2
2022-08-05T09:45:55.960Z,42.8
2022-08-05T09:47:11.216Z,43.5
2022-08-05T09:48:27.458Z,44.5
2022-08-05T09:49:43.689Z,44.8
2022-08-05T09:50:59.924Z,45.7
2022-08-05T09:52:16.172Z,46.6
2022-08-05T09:53:32.409Z,46.7
2022-08-05T09:54:48.651Z,47.7
2022-08-05T09:56:04.877Z,48.7
2022-08-05T09:57:21.121Z,48.4
2022-08-05T09:58:37.353Z,47.8
2022-08-05T09:59:53.588Z,47.3
2022-08-05T10:01:09.839Z,46.5
2022-08-05T10:02:26.069Z,46.8
2022-08-05T10:03:41.331Z,46.5
2022-08-05T10:04:57.578Z,45.8
2022-08-05T10:06:13.812Z,43.7
2022-08-05T10:07:30.036Z,43.3
2022-08-05T10:08:46.292Z,44.8
2022-08-05T10:10:02.516Z,45.3
2022-08-05T10:11:18.771Z,45.4
2022-08-05T10:12:34.996Z,45.8
2022-08-05T10:13:51.235Z,46.5
2022-08-05T10:15:07.487Z,47.5
2022-08-05T10:16:23.725Z,47.2
2022-08-05T10:17:39.955Z,47.1
2022-08-05T10:18:56.188Z,47.1
2022-08-05T10:20:11.452Z,47
2022-08-05T10:21:27.689Z,48
2022-08-05T10:22:43.919Z,48.5
2022-08-05T10:24:00.172Z,50.1
2022-08-05T10:25:16.406Z,50
2022-08-05T10:26:32.655Z,49.3
2022-08-05T10:27:48.891Z,47.6
2022-08-05T10:29:05.119Z,45
2022-08-05T10:30:21.367Z,44.6
2022-08-05T10:31:37.590Z,42.5
2022-08-05T10:32:53.846Z,41.7
2022-08-05T10:34:10.073Z,39.8
2022-08-05T10:35:26.322Z,39.2
2022-08-05T10:36:41.582Z,38.5
2022-08-05T10:37:57.805Z,39.8
2022-08-05T10:39:14.044Z,38
2022-08-05T10:40:30.292Z,37.8
2022-08-05T10:41:46.537Z,38.5
2022-08-05T10:43:02.774Z,36.8
2022-08-05T10:44:19.008Z,37.2
2022-08-05T10:45:35.237Z,35.3
2022-08-05T10:46:51.490Z,35.9
2022-08-05T10:48:07.731Z,36.4
2022-08-05T10:49:23.961Z,35.5
2022-08-05T10:50:40.201Z,36.2
2022-08-05T10:51:56.436Z,36.4
2022-08-05T10:53:11.703Z,36.8
2022-08-05T10:54:27.935Z,37
2022-08-05T10:55:44.167Z,35.8
2022-08-05T10:57:00.409Z,35.6
2022-08-05T10:58:16.651Z,35.3
2022-08-05T10:59:32.883Z,35.4
2022-08-05T11:00:49.130Z,33.8
2022-08-05T11:02:05.364Z,33.3
2022-08-05T11:03:21.614Z,34.1
2022-08-05T11:04:37.858Z,33.7
2022-08-05T11:05:54.098Z,34.5
2022-08-05T11:07:10.337Z,35.8
2022-08-05T11:08:26.568Z,37
2022-08-05T11:09:41.814Z,37.1
2022-08-05T11:10:58.052Z,37.9
2022-08-05T11:12:14.305Z,38.8
2022-08-05T11:13:30.531Z,40.5
2022-08-05T11:14:46.788Z,41.6
2022-08-05T11:16:03.021Z,41.5
2022-08-05T11:17:19.254Z,40
2022-08-05T11:18:35.507Z,39.1
2022-08-05T11:19:51.729Z,37
2022-08-05T11:21:07.974Z,36.4
2022-08-05T11:22:24.207Z,36.5
2022-08-05T11:23:40.459Z,37.2
2022-08-05T11:24:56.695Z,36.8
2022-08-05T11:26:11.946Z,35.7
2022-08-05T11:27:28.197Z,36
2022-08-05T11:28:44.427Z,36.8
2022-08-05T11:30:00.676Z,37.5
2022-08-05T11:31:16.915Z,37
2022-08-05T11:32:33.149Z,36.2
2022-08-05T11:33:49.382Z,36.1
2022-08-05T11:35:05.624Z,36.5
2022-08-05T11:36:21.862Z,36.3
2022-08-05T11:37:38.107Z,35.9
2022-08-05T11:38:54.340Z,36.6
2022-08-05T11:40:10.586Z,37.5
2022-08-05T11:41:26.823Z,36.4
2022-08-05T11:42:42.085Z,37.5
2022-08-05T11:43:58.322Z,37.8
2022-08-05T11:45:14.562Z,38.3
2022-08-05T11:46:30.799Z,39.5
2022-08-05T11:47:47.033Z,40.5
2022-08-05T11:49:03.267Z,39.9
2022-08-05T11:50:19.511Z,42.6
2022-08-05T11:51:35.744Z,41.7
2022-08-05T11:52:51.990Z,43.1
2022-08-05T11:54:08.240Z,45.1
2022-08-05T11:55:24.477Z,44.1
2022-08-05T11:56:40.707Z,45
2022-08-05T11:57:56.952Z,45.1
2022-08-05T11:59:12.212Z,43.3
2022-08-05T12:00:28.451Z,41.8
2022-08-05T12:01:44.683Z,39.9
2022-08-05T12:03:00.915Z,38.2
2022-08-05T12:04:17.166Z,37.8
2022-08-05T12:05:33.394Z,37.6
2022-08-05T12:06:49.638Z,37.2
2022-08-05T12:08:05.884Z,36.1
2022-08-05T12:09:22.127Z,36.2
2022-08-05T12:10:38.359Z,34.9
2022-08-05T12:11:54.606Z,35.5
2022-08-05T12:13:10.834Z,34.3
2022-08-05T12:14:27.081Z,34.7
2022-08-05T12:15:42.329Z,34.6
2022-08-05T12:16:58.577Z,34.4
2022-08-05T12:18:14.814Z,34
2022-08-05T12:19:31.039Z,34.4
2022-08-05T12:20:47.296Z,36.2
2022-08-05T12:22:03.531Z,36.4
2022-08-05T12:23:19.761Z,36.5
2022-08-05T12:24:36.009Z,38.3
2022-08-05T12:25:52.236Z,38.6
2022-08-05T12:27:08.485Z,37.4
2022-08-05T12:28:24.727Z,36.9
2022-08-05T12:30:57.193Z,36.9
2022-08-05T12:32:12.463Z,37.2
2022-08-05T12:33:28.698Z,35.5
2022-08-05T12:34:44.926Z,36.5
2022-08-05T12:36:01.168Z,35.8
2022-08-05T12:37:17.425Z,35.7
2022-08-05T12:38:33.657Z,33.7
2022-08-05T12:39:49.899Z,33.7
2022-08-05T12:41:06.135Z,35
2022-08-05T12:42:22.376Z,34.9
2022-08-05T12:43:38.605Z,34.1
2022-08-05T12:44:54.860Z,35.1
2022-08-05T12:46:11.093Z,35.3
2022-08-05T12:47:27.329Z,36.5
2022-08-05T12:48:42.585Z,37.3
2022-08-05T12:49:58.815Z,38
2022-08-05T12:51:15.067Z,38.7
2022-08-05T12:52:31.307Z,38.2
2022-08-05T12:53:47.535Z,37.9
2022-08-05T12:55:03.781Z,37.8
2022-08-05T12:56:20.021Z,37.7
2022-08-05T12:57:36.261Z,38
2022-08-05T12:58:52.491Z,37
2022-08-05T13:00:08.738Z,38.1
2022-08-05T13:01:24.973Z,37.9
2022-08-05T13:02:41.217Z,37.9
2022-08-05T13:03:57.457Z,37.3
2022-08-05T13:05:12.711Z,37
2022-08-05T13:06:28.956Z,39.3
2022-08-05T13:07:45.199Z,36.7
2022-08-05T13:09:01.431Z,38.2
2022-08-05T13:10:17.675Z,36.7
2022-08-05T13:11:33.909Z,36.8
2022-08-05T13:12:50.142Z,36.9
2022-08-05T13:14:06.392Z,37.6
2022-08-05T13:15:22.628Z,38.1
2022-08-05T13:16:38.860Z,39.4
2022-08-05T13:17:55.098Z,39.6
2022-08-05T13:19:11.334Z,39.4
2022-08-05T13:20:27.585Z,39.4
2022-08-05T13:21:42.845Z,39.4
2022-08-05T13:22:59.078Z,39.2
2022-08-05T13:24:15.308Z,39.8
2022-08-05T13:25:31.555Z,39.6
2022-08-05T13:26:47.784Z,40.1
2022-08-05T13:28:04.032Z,39.8
2022-08-05T13:29:20.259Z,40.6
2022-08-05T13:30:36.501Z,40.9
2022-08-05T13:31:52.741Z,42.2
2022-08-05T13:33:08.988Z,42
2022-08-05T13:34:25.220Z,41.5
2022-08-05T13:35:41.462Z,43.1
2022-08-05T13:36:57.693Z,43.8
2022-08-05T13:38:12.950Z,43.9
2022-08-05T13:39:29.206Z,44
2022-08-05T13:40:45.444Z,44.1
2022-08-05T13:42:01.676Z,44.4
2022-08-05T13:43:17.907Z,44.6
2022-08-05T13:44:34.147Z,44.3
2022-08-05T13:45:49.406Z,45.5
2022-08-05T13:47:05.652Z,45.5
2022-08-05T13:48:21.898Z,44.6
2022-08-05T13:49:38.131Z,44.6
2022-08-05T13:50:54.370Z,44
2022-08-05T13:52:10.611Z,44.5
2022-08-05T13:53:26.847Z,44.6
2022-08-05T13:54:43.090Z,43.6
2022-08-05T13:55:59.327Z,43.1
2022-08-05T13:57:15.569Z,41.8
2022-08-05T13:58:31.810Z,41.2
2022-08-05T13:59:48.048Z,42
2022-08-05T14:01:04.283Z,41.5
2022-08-05T14:02:19.523Z,41.5
2022-08-05T14:03:35.777Z,40.9
2022-08-05T14:04:52.020Z,40.5
2022-08-05T14:06:08.244Z,40.2
2022-08-05T14:07:24.500Z,40
2022-08-05T14:08:40.731Z,39.7
2022-08-05T14:09:56.964Z,39.7
2022-08-05T14:11:13.208Z,40
2022-08-05T14:12:29.434Z,40.3
2022-08-05T14:13:45.680Z,39.9
2022-08-05T14:15:01.932Z,39.3
2022-08-05T14:16:18.153Z,39.2
2022-08-05T14:17:34.393Z,38.3
2022-08-05T14:18:49.658Z,38.9
2022-08-05T14:20:05.898Z,40.5
2022-08-05T14:21:22.141Z,40.7
2022-08-05T14:22:38.378Z,42
2022-08-05T14:23:54.601Z,40.5
2022-08-05T14:25:10.849Z,40.6
2022-08-05T14:26:27.092Z,41.3
2022-08-05T14:27:43.320Z,42
2022-08-05T14:28:59.572Z,41.5
2022-08-05T14:30:15.802Z,42
2022-08-05T14:31:32.051Z,41.3
2022-08-05T14:32:48.291Z,41.3
2022-08-05T14:34:04.525Z,41.6
2022-08-05T14:35:19.774Z,40.9
2022-08-05T14:36:36.020Z,40.9
2022-08-05T14:37:52.263Z,40.7
2022-08-05T14:39:08.504Z,40.7
2022-08-05T14:40:24.728Z,40.5
2022-08-05T14:41:40.976Z,40.8
2022-08-05T14:42:57.205Z,40.9
2022-08-05T14:44:13.449Z,39.5
2022-08-05T14:45:29.703Z,39.9
2022-08-05T14:46:45.939Z,41.3
2022-08-05T14:48:02.175Z,39.8
2022-08-05T14:49:18.405Z,39.8
2022-08-05T14:50:34.659Z,39.6
2022-08-05T14:51:49.895Z,39.8
2022-08-05T14:53:06.152Z,39.9
2022-08-05T14:54:22.373Z,40.2
2022-08-05T14:55:38.620Z,40.5
2022-08-05T14:56:54.870Z,41.3
2022-08-05T14:58:11.111Z,42.4
2022-08-05T14:59:27.350Z,42
2022-08-05T15:00:43.574Z,42.6
2022-08-05T15:01:59.814Z,42.1
2022-08-05T15:03:16.065Z,43.2
2022-08-05T15:04:32.292Z,43.3
2022-08-05T15:05:48.539Z,43.1
2022-08-05T15:07:04.764Z,43.4
2022-08-05T15:08:20.030Z,41.9
2022-08-05T15:09:36.272Z,41.4
2022-08-05T15:10:52.504Z,42.2
2022-08-05T15:12:08.750Z,42
2022-08-05T15:13:24.988Z,41.7
2022-08-05T15:14:41.217Z,41.5
2022-08-05T15:15:57.455Z,42.1
2022-08-05T15:17:13.701Z,41.3
2022-08-05T15:18:29.937Z,41
2022-08-05T15:19:46.173Z,41.8
2022-08-05T15:21:02.425Z,41.9
2022-08-05T15:22:18.665Z,42.5
2022-08-05T15:23:34.902Z,42
2022-08-05T15:24:50.147Z,42.5
2022-08-05T15:26:06.378Z,42.8
2022-08-05T15:27:22.624Z,43.8
2022-08-05T15:28:38.871Z,43.6
2022-08-05T15:29:55.111Z,43.5
2022-08-05T15:31:11.342Z,42.8
2022-08-05T15:32:27.544Z,41.9
2022-08-05T15:33:43.786Z,42.4
2022-08-05T15:35:00.020Z,42.3
2022-08-05T15:36:16.266Z,42.4
2022-08-05T15:37:32.500Z,43.2
2022-08-05T15:38:48.726Z,43.9
2022-08-05T15:40:04.970Z,43.6
2022-08-05T15:41:20.228Z,43.9
2022-08-05T15:42:36.477Z,44
2022-08-05T15:43:52.712Z,44.2
2022-08-05T15:45:08.936Z,44
2022-08-05T15:46:25.191Z,48
2022-08-05T15:47:41.423Z,52.7
2022-08-05T15:48:57.663Z,54.6
2022-08-05T15:50:13.904Z,56
2022-08-05T15:51:30.148Z,57.4
2022-08-05T15:52:46.370Z,58.8
2022-08-05T15:54:02.613Z,59.8
2022-08-05T15:55:18.845Z,60.8
2022-08-05T15:56:35.103Z,61.2
2022-08-05T15:57:50.351Z,61.7
2022-08-05T15:59:06.595Z,62.1
2022-08-05T16:00:22.828Z,62.4
2022-08-05T16:01:39.073Z,62.7
2022-08-05T16:02:55.307Z,63.9
2022-08-05T16:04:11.552Z,65
2022-08-05T16:05:27.787Z,65.1
2022-08-05T16:06:44.029Z,65.6
2022-08-05T16:08:00.254Z,65.9
2022-08-05T16:09:16.499Z,65.9
2022-08-05T16:10:32.739Z,65.9
2022-08-05T16:11:48.972Z,65.6
2022-08-05T16:13:05.222Z,65.8
2022-08-05T16:14:20.470Z,66.1
2022-08-05T16:15:36.707Z,66.5
2022-08-05T16:16:52.938Z,66.7
2022-08-05T16:18:09.184Z,67.2
2022-08-05T16:19:25.417Z,67.6
2022-08-05T16:20:41.661Z,67.9
2022-08-05T16:21:57.903Z,68.8
2022-08-05T16:23:14.139Z,69.5
2022-08-05T16:24:30.368Z,70.4
2022-08-05T16:25:46.604Z,71.2
2022-08-05T16:27:02.863Z,71.7
2022-08-05T16:28:19.093Z,71.7
2022-08-05T16:29:35.339Z,71.7
2022-08-05T16:30:50.593Z,71.8
2022-08-05T16:32:06.824Z,72.2
2022-08-05T16:33:23.055Z,73.3
2022-08-05T16:34:39.297Z,73.5
2022-08-05T16:35:55.537Z,74
2022-08-05T16:37:11.773Z,74.4
2022-08-05T16:38:28.012Z,74.5
2022-08-05T16:39:44.257Z,75
2022-08-05T16:41:00.499Z,75.1
2022-08-05T16:42:16.727Z,75.1
2022-08-05T16:43:32.957Z,75.2
2022-08-05T16:44:49.208Z,75
2022-08-05T16:46:05.440Z,75
2022-08-05T16:47:20.693Z,74.7
2022-08-05T16:48:36.938Z,75
2022-08-05T16:49:53.173Z,75
2022-08-05T16:51:09.417Z,75.4
2022-08-05T16:52:25.662Z,76.2
2022-08-05T16:53:41.885Z,76.6
2022-08-05T16:54:58.124Z,76.5
2022-08-05T16:56:14.360Z,76.8
2022-08-05T16:57:30.609Z,76.9
2022-08-05T16:58:46.854Z,77.2
2022-08-05T17:00:03.080Z,77.5
2022-08-05T17:01:19.316Z,77.5
2022-08-05T17:02:35.560Z,77.8
2022-08-05T17:03:50.810Z,77.8